Strona główna
METAR-TAF:

METAR-TAF

Lotnisko :

Holland, Michigan, Stany Zjednoczone

Szerokość geograficzna: 42-44-46N, Długość geograficzna: 086-05-48W, wysokość: 209 m

Aktualna obserwacja pogody

Raport powstał 1 godzina i 2 minut temu, godzina 05:53 UTC
Wiatr 9 kt od północny wschód w porywach dochodzący do 15 kt
Temperatura 1°C
Wilgotność 69%
Ciśnienie 1018 hPa
Widzialność: 16.1 km
Przerywane chmury na wysokości 5500 ft
Zachmurzenie całkowite na wysokości 7500 ft

METAR: KBIV 260553Z AUTO 04009G15KT 10SM BKN055 OVC075 01/M04 A3007 RMK AO2 SNE09 SLP189 P0000 60000 T00061044 10044 20000 58003

czas: 01:55 (06:55 UTC)


TAF: brakujący

Obserwacja i prognoza pogody dla ponad 4000 lotnisk (raport METAR i TAF).

Dostępne stacje oznaczono żółtymi i czerwonymi punktami na mapie.

Najedź kursorem aby zobaczyć nazwę stacji.

Kliknij aby zobaczyć obserwacje i prognozy pogody.

Aby zmienić mapę: kliknij na zielony przycisk z czarnym krzyżykiem, aby powiększyć; na zielony przycisk z myślnikiem, aby pomniejszyć; na zielone strzałki, aby przejść do map sąsiednich.


METAR-TAF: